Holiday — WDF4494 — position and weather

sailwx.info

Track history (hours):
 
Tides and Currents Weather Stations Pressure Air Temp Water Temp Dewpoint Dewpoint Depression Visibility Wind Speed Wind Dir Waves Ship Positions

Holiday

Owner: VOAKLANDER, TIM J, CARDIFF, CA. More information available from US FCC via Universal Licensing System and Coast Guard Vessel Documentation Center.

Last reported at 2017-Nov-18 13:56 UTC. Time now 2017-Nov-18 21:51 UTC.
Position N 32°46' W 117°14'.

Length 24 m.

Type: Wing in ground effect craft. MMSI: 367452560.

Date/timePositionNaut miles runAvg speedWind from/ knotsBaromVisibWave heightAir tempDewpointWater temp
2017-Nov-18 13:56N 32°46' W 117°14'2 5.5
2017-Nov-18 13:30N 32°45' W 117°17'1 2.0
2017-Nov-18 13:00N 32°45' W 117°18'1 2.6
2017-Nov-18 12:30N 32°45' W 117°20'0 0.3
2017-Nov-18 11:58N 32°45' W 117°20'0 0.2
2017-Nov-18 11:19N 32°45' W 117°20'0 0.1
2017-Nov-18 10:56N 32°45' W 117°20'2 5.3
2017-Nov-18 10:30N 32°43' W 117°22'8 6.6
2017-Nov-18 09:18N 32°38' W 117°28'2 6.4
2017-Nov-18 08:57N 32°36' W 117°31'3 6.3
2017-Nov-18 08:29N 32°34' W 117°33'45 2.4
2017-Nov-17 13:35N 32°05' W 118°14'0 5.4
2017-Nov-17 13:30N 32°05' W 118°14'9 5.1
2017-Nov-17 11:39N 32°11' W 118°06'1 8.7
2017-Nov-17 11:29N 32°12' W 118°05'4 8.5
2017-Nov-17 11:00N 32°15' W 118°01'5 8.3
2017-Nov-17 10:27N 32°18' W 117°57'4 8.5
2017-Nov-17 09:58N 32°20' W 117°53'4 8.6
2017-Nov-17 09:30N 32°23' W 117°49'5 8.7
2017-Nov-17 08:59N 32°26' W 117°45'4 8.9
2017-Nov-17 08:30N 32°28' W 117°41'4 8.8
2017-Nov-17 08:01N 32°31' W 117°37'5 9.2
2017-Nov-17 07:30N 32°34' W 117°33'5 9.7
2017-Nov-17 07:00N 32°37' W 117°29'5 9.3
2017-Nov-17 06:30N 32°40' W 117°25'5 9.2
2017-Nov-17 06:00N 32°43' W 117°20'4 8.1
2017-Nov-17 05:30N 32°45' W 117°16'2 1.1
2017-Nov-17 03:51N 32°46' W 117°14'0 0.1
2017-Nov-17 03:30N 32°46' W 117°14'0 0.0
2017-Nov-16 15:37N 32°46' W 117°14'0 0.0
2017-Nov-16 15:22N 32°46' W 117°14'0 0.0
2017-Nov-16 14:09N 32°46' W 117°14'1 7.0
2017-Nov-16 14:00N 32°45' W 117°15'3 6.2
2017-Nov-16 13:29N 32°46' W 117°19'0 0.2
2017-Nov-16 12:56N 32°46' W 117°19'1 1.3
2017-Nov-16 12:31N 32°45' W 117°19'2 3.9
2017-Nov-16 12:01N 32°44' W 117°21'2 4.3
2017-Nov-16 11:31N 32°44' W 117°24'2 4.2
2017-Nov-16 11:00N 32°43' W 117°26'2 4.3
2017-Nov-16 10:30N 32°43' W 117°29'2 4.6
2017-Nov-16 10:01N 32°43' W 117°31'2 4.8
2017-Nov-16 09:30N 32°42' W 117°34'2 4.8
2017-Nov-16 09:00N 32°42' W 117°37'2 5.0
2017-Nov-16 08:31N 32°42' W 117°40'2 4.9
2017-Nov-16 08:00N 32°42' W 117°43'0 0.8
2017-Nov-16 07:30N 32°41' W 117°43'2 3.6
2017-Nov-16 07:00N 32°41' W 117°45'2 4.4
2017-Nov-16 06:30N 32°41' W 117°48'2 4.4
2017-Nov-16 06:01N 32°40' W 117°51'2 4.2
2017-Nov-16 05:30N 32°40' W 117°53'2 4.4
2017-Nov-16 05:00N 32°40' W 117°56'2 3.0
2017-Nov-16 04:29N 32°39' W 117°57'14 1.2
2017-Nov-15 16:52N 32°26' W 117°54'3 8.1
2017-Nov-15 16:29N 32°28' W 117°52'2 3.7
2017-Nov-15 15:51N 32°29' W 117°55'1 2.4
2017-Nov-15 15:26N 32°29' W 117°56'1 3.0
2017-Nov-15 15:00N 32°28' W 117°58'3 0.7
2017-Nov-15 10:48N 32°30' W 117°55'2 6.2
2017-Nov-15 10:30N 32°31' W 117°53'3 6.2
2017-Nov-15 10:00N 32°33' W 117°50'3 5.9
2017-Nov-15 09:26N 32°34' W 117°46'3 6.3
2017-Nov-15 09:00N 32°35' W 117°43'3 6.4
2017-Nov-15 08:30N 32°36' W 117°39'3 6.4
2017-Nov-15 08:00N 32°37' W 117°36'3 6.7
2017-Nov-15 07:30N 32°39' W 117°32'3 6.9
2017-Nov-15 07:00N 32°40' W 117°29'3 7.0
2017-Nov-15 06:30N 32°42' W 117°25'4 7.1
2017-Nov-15 06:00N 32°44' W 117°21'  
2017-Nov-11 14:01N 32°46' W 117°14'0 2.1
2017-Nov-11 14:01N 32°46' W 117°14'5 9.3
2017-Nov-11 13:30N 32°45' W 117°20'2 4.7
2017-Nov-11 13:00N 32°44' W 117°22'0 0.8
2017-Nov-11 12:30N 32°44' W 117°22'0 0.6
2017-Nov-11 11:58N 32°44' W 117°22'0 0.7
2017-Nov-11 11:30N 32°45' W 117°21'2 3.6
2017-Nov-11 11:00N 32°44' W 117°23'1 2.8
2017-Nov-11 10:30N 32°43' W 117°25'2 4.8
2017-Nov-11 10:00N 32°44' W 117°22'2 3.7
2017-Nov-11 09:30N 32°43' W 117°24'2 3.7
2017-Nov-11 09:00N 32°42' W 117°26'2 3.7
2017-Nov-11 08:30N 32°42' W 117°28'2 3.7
2017-Nov-11 08:00N 32°41' W 117°30'2 3.8
2017-Nov-11 07:27N 32°40' W 117°32'11 4.9
2017-Nov-11 05:12N 32°36' W 117°45'9 0.4
2017-Nov-10 08:27N 32°45' W 117°46'10 8.2
2017-Nov-10 07:14N 32°45' W 117°35'3 8.0
2017-Nov-10 06:55N 32°44' W 117°32'3 8.1
2017-Nov-10 06:30N 32°45' W 117°27'4 8.3
2017-Nov-10 06:00N 32°45' W 117°23'  
Track history (hours):
 
Tides and Currents Weather Stations Pressure Air Temp Water Temp Dewpoint Dewpoint Depression Visibility Wind Speed Wind Dir Waves Ship Positions

Holiday

Owner: VOAKLANDER, TIM J, CARDIFF, CA. More information available from US FCC via Universal Licensing System and Coast Guard Vessel Documentation Center.

Last reported at 2017-Nov-18 13:56 UTC. Time now 2017-Nov-18 21:51 UTC.
Position N 32°46' W 117°14'.

Length 24 m.

Type: Wing in ground effect craft. MMSI: 367452560.

Date/timePositionNaut miles runAvg speedWind from/ knotsBaromVisibWave heightAir tempDewpointWater temp
2017-Nov-18 13:56N 32°46' W 117°14'2 5.5
2017-Nov-18 13:30N 32°45' W 117°17'1 2.0
2017-Nov-18 13:00N 32°45' W 117°18'1 2.6
2017-Nov-18 12:30N 32°45' W 117°20'0 0.3
2017-Nov-18 11:58N 32°45' W 117°20'0 0.2
2017-Nov-18 11:19N 32°45' W 117°20'0 0.1
2017-Nov-18 10:56N 32°45' W 117°20'2 5.3
2017-Nov-18 10:30N 32°43' W 117°22'8 6.6
2017-Nov-18 09:18N 32°38' W 117°28'2 6.4
2017-Nov-18 08:57N 32°36' W 117°31'3 6.3
2017-Nov-18 08:29N 32°34' W 117°33'45 2.4
2017-Nov-17 13:35N 32°05' W 118°14'0 5.4
2017-Nov-17 13:30N 32°05' W 118°14'9 5.1
2017-Nov-17 11:39N 32°11' W 118°06'1 8.7
2017-Nov-17 11:29N 32°12' W 118°05'4 8.5
2017-Nov-17 11:00N 32°15' W 118°01'5 8.3
2017-Nov-17 10:27N 32°18' W 117°57'4 8.5
2017-Nov-17 09:58N 32°20' W 117°53'4 8.6
2017-Nov-17 09:30N 32°23' W 117°49'5 8.7
2017-Nov-17 08:59N 32°26' W 117°45'4 8.9
2017-Nov-17 08:30N 32°28' W 117°41'4 8.8
2017-Nov-17 08:01N 32°31' W 117°37'5 9.2
2017-Nov-17 07:30N 32°34' W 117°33'5 9.7
2017-Nov-17 07:00N 32°37' W 117°29'5 9.3
2017-Nov-17 06:30N 32°40' W 117°25'5 9.2
2017-Nov-17 06:00N 32°43' W 117°20'4 8.1
2017-Nov-17 05:30N 32°45' W 117°16'2 1.1
2017-Nov-17 03:51N 32°46' W 117°14'0 0.1
2017-Nov-17 03:30N 32°46' W 117°14'0 0.0
2017-Nov-16 15:37N 32°46' W 117°14'0 0.0
2017-Nov-16 15:22N 32°46' W 117°14'0 0.0
2017-Nov-16 14:09N 32°46' W 117°14'1 7.0
2017-Nov-16 14:00N 32°45' W 117°15'3 6.2
2017-Nov-16 13:29N 32°46' W 117°19'0 0.2
2017-Nov-16 12:56N 32°46' W 117°19'1 1.3
2017-Nov-16 12:31N 32°45' W 117°19'2 3.9
2017-Nov-16 12:01N 32°44' W 117°21'2 4.3
2017-Nov-16 11:31N 32°44' W 117°24'2 4.2
2017-Nov-16 11:00N 32°43' W 117°26'2 4.3
2017-Nov-16 10:30N 32°43' W 117°29'2 4.6
2017-Nov-16 10:01N 32°43' W 117°31'2 4.8
2017-Nov-16 09:30N 32°42' W 117°34'2 4.8
2017-Nov-16 09:00N 32°42' W 117°37'2 5.0
2017-Nov-16 08:31N 32°42' W 117°40'2 4.9
2017-Nov-16 08:00N 32°42' W 117°43'0 0.8
2017-Nov-16 07:30N 32°41' W 117°43'2 3.6
2017-Nov-16 07:00N 32°41' W 117°45'2 4.4
2017-Nov-16 06:30N 32°41' W 117°48'2 4.4
2017-Nov-16 06:01N 32°40' W 117°51'2 4.2
2017-Nov-16 05:30N 32°40' W 117°53'2 4.4
2017-Nov-16 05:00N 32°40' W 117°56'2 3.0
2017-Nov-16 04:29N 32°39' W 117°57'14 1.2
2017-Nov-15 16:52N 32°26' W 117°54'3 8.1
2017-Nov-15 16:29N 32°28' W 117°52'2 3.7
2017-Nov-15 15:51N 32°29' W 117°55'1 2.4
2017-Nov-15 15:26N 32°29' W 117°56'1 3.0
2017-Nov-15 15:00N 32°28' W 117°58'3 0.7
2017-Nov-15 10:48N 32°30' W 117°55'2 6.2
2017-Nov-15 10:30N 32°31' W 117°53'3 6.2
2017-Nov-15 10:00N 32°33' W 117°50'3 5.9
2017-Nov-15 09:26N 32°34' W 117°46'3 6.3
2017-Nov-15 09:00N 32°35' W 117°43'3 6.4
2017-Nov-15 08:30N 32°36' W 117°39'3 6.4
2017-Nov-15 08:00N 32°37' W 117°36'3 6.7
2017-Nov-15 07:30N 32°39' W 117°32'3 6.9
2017-Nov-15 07:00N 32°40' W 117°29'3 7.0
2017-Nov-15 06:30N 32°42' W 117°25'4 7.1
2017-Nov-15 06:00N 32°44' W 117°21'  
2017-Nov-11 14:01N 32°46' W 117°14'0 2.1
2017-Nov-11 14:01N 32°46' W 117°14'5 9.3
2017-Nov-11 13:30N 32°45' W 117°20'2 4.7
2017-Nov-11 13:00N 32°44' W 117°22'0 0.8
2017-Nov-11 12:30N 32°44' W 117°22'0 0.6
2017-Nov-11 11:58N 32°44' W 117°22'0 0.7
2017-Nov-11 11:30N 32°45' W 117°21'2 3.6
2017-Nov-11 11:00N 32°44' W 117°23'1 2.8
2017-Nov-11 10:30N 32°43' W 117°25'2 4.8
2017-Nov-11 10:00N 32°44' W 117°22'2 3.7
2017-Nov-11 09:30N 32°43' W 117°24'2 3.7
2017-Nov-11 09:00N 32°42' W 117°26'2 3.7
2017-Nov-11 08:30N 32°42' W 117°28'2 3.7
2017-Nov-11 08:00N 32°41' W 117°30'2 3.8
2017-Nov-11 07:27N 32°40' W 117°32'11 4.9
2017-Nov-11 05:12N 32°36' W 117°45'9 0.4
2017-Nov-10 08:27N 32°45' W 117°46'10 8.2
2017-Nov-10 07:14N 32°45' W 117°35'3 8.0
2017-Nov-10 06:55N 32°44' W 117°32'3 8.1
2017-Nov-10 06:30N 32°45' W 117°27'4 8.3
2017-Nov-10 06:00N 32°45' W 117°23'  

Dump ship's entire track history